Terminal Aerodrome Forecast
Issued by NWS

Home | Current Version | Previous Version | Text Only | Print | Product List | Glossary On
Versions: 1 2 3 4 5 6 7 8 9 10 11 12 13 14 15 16 17 18 19 20 21 22 23 24 25 26 27 28 29 30 31 32
000
FTUS46 KLOX 190439 AAD
TAFLAX
TAF AMD
KLAX 190439Z 1905/2006 10008KT 6SM -RA BR SCT025 BKN050
     FM190800 15012G20KT 6SM -SHRA BR BKN025 OVC050
     FM191100 13015G25KT 3SM RA BR BKN012 OVC025
     FM191400 19015G25KT 2SM TSRA BR BKN007 OVC015CB
     FM191600 25015G25KT P6SM -SHRA BKN025 BKN050=

USA.gov is the U.S. government's official web portal to all federal, state and local government web resources and services.